Alpental, Washington
Current Conditions -  °F | °C
As of 8:38 AM on Saturday 25 Oct 2014 (Local Time) from KRNT Reporting Station
Light Rain Light Rain  
Wind Chill: 51°   Ceiling: 1200
Heat Index: 51°   Visibility: 3mi
Dew Point: 50°   Wind: 6mph
Humidity: 96%   Direction: NA
Pressure: 29.58"   Gusts: NA
Location:  47.4076°N, 121.414°W
Report Text: KRNT 251538Z VRB05KT 3SM -RA BR BKN012 OVC065 11/10 A2958 RMK AO2 RAB04 P0005 T01060100
Loading
Personal Weather Stations






























Interactive Weather Map New forecast layout! Learn more

10-Day Weather Forecast

Advertisements
Track Severe Weather on mobile